Henderson, Nevada Weather observations

Data are for observation ending at time listed.
 Day   Time    Ave.   Ave.  Ave.  Vector   Max.   Stn.    Total    Solar   Ave.  
  of    of     Air    Rel.  Wind   Wind    Wind   Baro.  Precip.   Rad.    Soil  
Year   Day     Temp.  Hum.  Speed  Dir.    Gust   Pres.                    Temp. 
2015   (PST)    F      %     mph   deg.    mph     mb.     in.     W/m2     F   
------------------------------------------------------------------------------
 187    0:00   83.7    32    0.9   203      2.6   936.7    0.00       0    82.0
 187    0:10   83.6    32    1.2   154      3.0   936.6    0.00       0    81.6
 187    0:20   84.1    31    1.3   127      2.6   936.6    0.00       0    81.6
 187    0:30   84.0    31    0.8   145      2.9   936.5    0.00       0    81.7
 187    0:40   83.5    32    1.0   159      2.4   936.3    0.00       0    81.5
 187    0:50   83.8    31    1.6   184      4.8   936.2    0.00       0    81.4
 187    1:00   83.2    32    1.2   221      3.1   936.1    0.00       0    81.3
 187    1:10   83.3    31    1.0   197      2.9   936.0    0.00       0    81.2
 187    1:20   84.1    31    3.5   108      6.1   936.4    0.00       0    81.6
 187    1:30   84.6    30    5.5   111      9.9   936.6    0.00       0    82.2
 187    1:40   84.5    31    5.7   112      9.2   936.7    0.00       0    82.8
 187    1:50   84.5    31    2.5   136      5.7   936.8    0.00       0    83.0
 187    2:00   84.2    32    3.7   179      8.9   936.9    0.00       0    82.9
 187    2:10   84.1    32    2.7   150      7.5   936.9    0.00       0    82.8
 187    2:20   84.4    32    3.0   157      8.7   936.9    0.00       0    82.8
 187    2:30   84.5    31    3.9   170     11.9   937.0    0.00       0    82.9
 187    2:40   84.1    32    3.5   162      9.6   937.1    0.00       0    82.9
 187    2:50   83.8    32    2.8   156      6.1   937.3    0.00       0    82.8
 187    3:00   83.7    33    4.0   152     11.2   937.2    0.00       0    82.7
 187    3:10   83.0    36    4.3   159     12.3   937.2    0.00       0    82.6
 187    3:20   82.5    38    5.6   155     12.4   937.3    0.00       0    82.3
 187    3:30   82.5    38    5.1   154     13.2   937.2    0.00       0    82.1
 187    3:40   82.6    39    5.3   156     19.4   937.2    0.00       0    81.9
 187    3:50   82.5    40    5.5   152     14.9   937.3    0.00       0    81.9
 187    4:00   82.2    42    7.6   153     16.4   937.3    0.00       0    81.7
 187    4:10   81.9    43    6.8   156     20.5   937.3    0.00       0    81.6
 187    4:20   81.6    45    7.3   162     17.7   937.3    0.00       0    81.5
 187    4:30   81.3    46    6.9   157     17.0   937.2    0.00       0    81.3
 187    4:40   81.0    47    6.2   158     14.5   937.3    0.00       5    81.1
 187    4:50   80.8    48    6.3   152     14.3   937.4    0.00       7    80.9
 187    5:00   80.7    48    6.5   150     14.0   937.4    0.00      13    80.7
 187    5:10   80.5    49    5.5   155     13.3   937.6    0.00      20    80.6
 187    5:20   80.4    49    4.5   159     12.6   937.7    0.00      30    80.4
 187    5:30   80.5    49    3.5   141      8.6   937.8    0.00      34    80.3
 187    5:40   80.3    50    3.6   148      7.7   938.1    0.00      34    80.3
 187    5:50   80.6    49    3.7   118      8.6   938.2    0.00      41    80.3
 187    6:00   80.9    48    4.1   122     10.4   938.4    0.00      50    80.5
 187    6:10   81.0    48    2.0   154      5.3   938.6    0.00      67    80.7
 187    6:20   81.3    48    3.4   181      9.1   938.7    0.00      96    80.8
 187    6:30   81.5    48    5.4   187     10.4   938.7    0.00     201    81.3
 187    6:40   82.8    46    4.7   175     10.1   938.7    0.00     325    83.2
 187    6:50   82.6    46    3.5   156      9.3   938.8    0.00     202    84.2
 187    7:00   82.7    46    5.1   184     10.7   938.8    0.00     188    84.3
 187    7:10   83.0    45    4.4   176     10.4   938.9    0.00     174    84.3
 187    7:20   83.0    45    4.0   164     10.7   938.9    0.00     162    84.3
 187    7:30   83.4    44    4.5   167     13.7   938.8    0.00     165    84.5
 187    7:40   83.8    43    3.5   154      9.5   938.9    0.00     186    84.7
 187    7:50   84.6    42    3.2   124      7.2   939.0    0.00     200    85.1
 187    8:00   84.8    41    2.7   131      5.3   939.1    0.00     165    85.5
 187    8:10   84.9    41    2.8   141      7.5   939.1    0.00     144    85.7
 187    8:20   85.4    40    1.5   137      4.7   939.2    0.00     124    85.8
 187    8:30   85.6    40    2.3   125      6.4   939.2    0.00     121    86.0
 187    8:40   85.7    40    2.7   119      5.2   939.3    0.00     130    86.1
 187    8:50   85.7    40    2.1   127      6.0   939.3    0.00     159    86.2
 187    9:00   85.9    40    1.8   137      4.7   939.3    0.00     208    86.5
 187    9:10   86.7    38    2.1   124      5.0   939.3    0.00     292    87.2
 187    9:20   87.4    38    2.4   125      6.5   939.3    0.00     411    88.4
 187    9:30   87.8    37    2.7   127      5.4   939.3    0.00     447    89.8
 187    9:40   89.4    34    3.0   134      6.1   939.3    0.00     825    91.6
 187    9:50   92.9    31    2.5   143      9.0   939.2    0.00    1201    96.7
 187   10:00   92.7    30    2.8   178      7.2   939.2    0.00     519    99.5
 187   10:10   91.3    32    1.5   160      5.3   939.2    0.00     444    98.7
 187   10:20   92.0    31    1.7   164      6.4   939.2    0.00     672    98.5
 187   10:30   92.0    31    3.5   104      6.7   939.1    0.00     774    99.5
 187   10:40   91.6    31    4.0   111      8.4   939.0    0.00     761    99.3
 187   10:50   93.3    29    4.5   100     10.7   938.9    0.00    1269    100.7
 187   11:00   93.7    29    4.6   102     11.6   938.9    0.00    1165    102.2
 187   11:10   95.3    28    3.5   107      8.8   938.8    0.00    1129    103.2
 187   11:20   93.5    28    5.7    98     10.7   938.7    0.00     682    102.7
 187   11:30   92.8    28    2.3    82      5.8   938.6    0.00     442    100.7
 187   11:40   93.6    28    2.7    80      9.1   938.5    0.00     912    99.7
 187   11:50   95.1    26    3.1   100     10.2   938.3    0.00    1076    100.1
 187   12:00   96.3    25    2.5    60      6.5   938.1    0.00    1136    100.6
 187   12:10   96.9    24    2.7    71      8.0   938.0    0.00     986    101.2
 187   12:20   96.5    23    2.9    79      6.3   937.8    0.00     977    101.4
 187   12:30   97.5    22    2.7    29      6.4   937.7    0.00    1021    101.8
 187   12:40   97.0    23    2.4    35      5.9   937.5    0.00     768    102.1
 187   12:50   96.7    23    2.9    78      8.3   937.5    0.00     712    101.8
 187   13:00   96.5    22    1.8    15      4.0   937.3    0.00     648    101.7
 187   13:10   97.8    21    1.8    35      4.5   937.2    0.00     902    102.1
 187   13:20   97.9    21    2.1   270      6.0   937.1    0.00     810    103.4
 187   13:30   98.1    21    2.3    58      4.8   937.0    0.00     682    104.1
 187   13:40   98.1    20    2.0   309      5.5   936.9    0.00     544    104.3
 187   13:50   98.6    20    2.0    74      6.2   936.8    0.00     435    104.0
 187   14:00   98.5    19    3.5   102      9.4   936.7    0.00     387    103.5
 187   14:10   97.5    19    3.3   119      7.8   936.6    0.00     316    102.7
 187   14:20   96.9    22    5.5   201     11.5   936.5    0.00     290    102.0
 187   14:30   96.7    23    4.7   199     12.6   936.2    0.00     318    100.9
 187   14:40   96.4    22    4.2   202     10.6   936.1    0.00     342    100.2
 187   14:50   96.3    22    3.8   182      9.4   936.0    0.00     349    99.8
 187   15:00   96.5    22    3.8   159     11.7   935.9    0.00     347    99.6
 187   15:10   96.4    22    4.4   182      9.2   935.9    0.00     337    99.4
 187   15:20   96.5    22    3.9   143      8.0   935.8    0.00     337    99.4
 187   15:30   96.4    22    3.9   161     10.5   935.8    0.00     352    99.3
 187   15:40   96.7    22    3.3   154      9.2   935.7    0.00     414    99.5
 187   15:50   97.5    21    2.7   128      8.7   935.7    0.00     507    100.2
 187   16:00   98.2    20    2.8   172      7.6   935.6    0.00     576    101.5
 187   16:10   98.4    20    3.2   106      6.6   935.5    0.00     475    102.6
 187   16:20   98.6    20    2.9   122      7.2   935.4    0.00     494    103.1
 187   16:30   98.9    20    3.5   117      8.8   935.3    0.00     436    103.7
 187   16:40   98.1    20    5.2   110     10.2   935.4    0.00     327    103.6
 187   16:50   97.4    19    2.5   125      6.7   935.4    0.00     191    102.7
 187   17:00   97.2    20    1.6   158      3.8   935.5    0.00     147    101.7
 187   17:10   97.2    20    2.2   113      4.7   935.5    0.00     136    100.7
 187   17:20   96.9    20    1.5    36      4.0   935.4    0.00     137    99.9
 187   17:30   96.3    20    3.9   344     12.6   935.3    0.00     131    99.3
 187   17:40   94.7    21    4.8    13     13.9   935.4    0.00      69    98.2
 187   17:50   94.4    21    4.6   355     13.4   935.4    0.00      43    96.7
 187   18:00   93.9    20    4.9     3     11.2   935.8    0.00      14    95.6
 187   18:10   93.9    19    6.4   334     17.5   936.2    0.00       7    94.9
 187   18:20   89.1    28   11.4   298     21.5   936.9    0.00       7    93.7
 187   18:30   81.8    47   11.7   292     29.7   937.6    0.28       7    89.2
 187   18:40   72.8    58   12.3   342     34.2   937.3    0.14       0    79.4
 187   18:50   73.4    60    6.3   319     11.8   937.1    0.01       0    74.1
 187   19:00   74.0    61    2.8   302      7.6   937.2    0.00       0    71.8
 187   19:10   74.8    62    2.2   193      7.4   936.8    0.00       0    70.6
 187   19:20   76.4    57    2.5   201      6.4   936.6    0.00       0    70.7
 187   19:30   76.8    60    1.8   204      5.3   936.4    0.00       0    71.9
 187   19:40   78.3    56    2.8   197      6.1   936.3    0.00       0    73.1
 187   19:50   78.8    57    3.5   112      9.1   936.2    0.00       0    74.2
 187   20:00   80.1    49    2.7   129      6.4   936.4    0.00       0    75.6
 187   20:10   80.9    46    3.2   277      8.3   937.0    0.00       0    76.5
 187   20:20   81.3    46    1.5   299      4.1   937.3    0.00       0    77.2
 187   20:30   80.3    52    0.6   133      2.0   937.1    0.00       0    77.5
 187   20:40   80.2    50    0.8   144      2.9   937.1    0.00       0    77.6
 187   20:50   80.9    43    3.7   151      8.0   937.1    0.00       0    78.0
 187   21:00   81.0    42    3.5   177      8.4   937.2    0.00       0    78.6
 187   21:10   80.8    44    1.9   333      5.7   937.6    0.00       0    78.8
 187   21:20   80.1    50    0.6    50      4.4   937.7    0.00       0    78.6
 187   21:30   79.7    52    0.9   173      2.9   937.4    0.00       0    78.4
 187   21:40   79.4    50    0.6   136      1.5   937.3    0.00       0    78.1
 187   21:50   80.0    51    2.1   117      4.9   937.3    0.00       0    78.1
 187   22:00   79.8    50    0.5   126      1.8   937.1    0.00       0    78.0
 187   22:10   79.6    54    1.5   231      3.2   937.2    0.00       0    77.9
 187   22:20   79.5    51    2.0   188      4.1   937.2    0.00       0    77.7
 187   22:30   79.6    54    0.1   355      1.0   937.1    0.00       0    77.6
 187   22:40   78.7    59    2.0   275      3.2   937.2    0.00       0    77.2

Return to Henderson, Nevada graphs page.


Western Regional Climate Center,wrcc@dri.edu